sensor_id;sensor_type;location;lat;lon;timestamp;pressure;altitude;pressure_sealevel;temperature
15709;BMP180;7954;51.914;8.420;2023-08-06T00:00:25;99413.50;;;20.87
15709;BMP180;7954;51.914;8.420;2023-08-06T00:02:53;99411.84;;;20.88
15709;BMP180;7954;51.914;8.420;2023-08-06T00:05:21;99414.41;;;20.88
15709;BMP180;7954;51.914;8.420;2023-08-06T00:07:50;99411.47;;;20.92
15709;BMP180;7954;51.914;8.420;2023-08-06T00:10:20;99416.00;;;20.94
15709;BMP180;7954;51.914;8.420;2023-08-06T00:12:48;99412.88;;;20.97
15709;BMP180;7954;51.914;8.420;2023-08-06T00:15:17;99407.16;;;20.99
15709;BMP180;7954;51.914;8.420;2023-08-06T00:17:45;99397.94;;;21.01
15709;BMP180;7954;51.914;8.420;2023-08-06T00:20:13;99391.34;;;21.03
15709;BMP180;7954;51.914;8.420;2023-08-06T00:22:41;99393.16;;;21.04
15709;BMP180;7954;51.914;8.420;2023-08-06T00:25:09;99396.94;;;21.08
15709;BMP180;7954;51.914;8.420;2023-08-06T00:27:38;99388.50;;;21.09
15709;BMP180;7954;51.914;8.420;2023-08-06T00:30:07;99383.72;;;21.12
15709;BMP180;7954;51.914;8.420;2023-08-06T00:32:35;99381.31;;;21.13
15709;BMP180;7954;51.914;8.420;2023-08-06T00:35:03;99387.19;;;21.12
15709;BMP180;7954;51.914;8.420;2023-08-06T00:37:31;99381.16;;;21.12
15709;BMP180;7954;51.914;8.420;2023-08-06T00:39:59;99382.22;;;21.14
15709;BMP180;7954;51.914;8.420;2023-08-06T00:42:27;99384.03;;;21.15
15709;BMP180;7954;51.914;8.420;2023-08-06T00:44:56;99386.03;;;21.17
15709;BMP180;7954;51.914;8.420;2023-08-06T00:47:25;99382.56;;;21.17
15709;BMP180;7954;51.914;8.420;2023-08-06T00:49:53;99376.84;;;21.19
15709;BMP180;7954;51.914;8.420;2023-08-06T00:52:22;99369.28;;;21.21
15709;BMP180;7954;51.914;8.420;2023-08-06T00:54:50;99367.91;;;21.16
15709;BMP180;7954;51.914;8.420;2023-08-06T00:57:18;99373.44;;;21.12
15709;BMP180;7954;51.914;8.420;2023-08-06T00:59:48;99373.09;;;21.09
15709;BMP180;7954;51.914;8.420;2023-08-06T01:02:18;99369.78;;;21.10
15709;BMP180;7954;51.914;8.420;2023-08-06T01:04:46;99368.72;;;21.08
15709;BMP180;7954;51.914;8.420;2023-08-06T01:07:21;99365.97;;;21.06
15709;BMP180;7954;51.914;8.420;2023-08-06T01:09:59;99362.09;;;21.10
15709;BMP180;7954;51.914;8.420;2023-08-06T01:12:39;99358.94;;;21.12
15709;BMP180;7954;51.914;8.420;2023-08-06T01:15:15;99354.22;;;21.08
15709;BMP180;7954;51.914;8.420;2023-08-06T01:17:47;99352.72;;;21.10
15709;BMP180;7954;51.914;8.420;2023-08-06T01:20:15;99351.31;;;21.05
15709;BMP180;7954;51.914;8.420;2023-08-06T01:22:45;99353.16;;;21.06
15709;BMP180;7954;51.914;8.420;2023-08-06T01:25:15;99356.22;;;21.11
15709;BMP180;7954;51.914;8.420;2023-08-06T01:27:46;99354.56;;;21.11
15709;BMP180;7954;51.914;8.420;2023-08-06T01:30:17;99343.84;;;21.15
15709;BMP180;7954;51.914;8.420;2023-08-06T01:32:50;99346.41;;;21.15
15709;BMP180;7954;51.914;8.420;2023-08-06T01:35:21;99347.19;;;21.14
15709;BMP180;7954;51.914;8.420;2023-08-06T01:37:53;99339.72;;;21.09
15709;BMP180;7954;51.914;8.420;2023-08-06T01:40:22;99339.41;;;21.06
15709;BMP180;7954;51.914;8.420;2023-08-06T01:42:51;99331.56;;;21.04
15709;BMP180;7954;51.914;8.420;2023-08-06T01:45:19;99340.00;;;21.03
15709;BMP180;7954;51.914;8.420;2023-08-06T01:47:47;99330.47;;;21.02
15709;BMP180;7954;51.914;8.420;2023-08-06T01:50:15;99322.91;;;21.04
15709;BMP180;7954;51.914;8.420;2023-08-06T01:52:43;99323.50;;;21.01
15709;BMP180;7954;51.914;8.420;2023-08-06T01:55:13;99311.75;;;21.03
15709;BMP180;7954;51.914;8.420;2023-08-06T01:57:41;99315.97;;;21.03
15709;BMP180;7954;51.914;8.420;2023-08-06T02:00:10;99311.91;;;21.05
15709;BMP180;7954;51.914;8.420;2023-08-06T02:02:38;99313.41;;;21.03
15709;BMP180;7954;51.914;8.420;2023-08-06T02:05:07;99320.78;;;21.00
15709;BMP180;7954;51.914;8.420;2023-08-06T02:07:35;99311.38;;;20.92
15709;BMP180;7954;51.914;8.420;2023-08-06T02:10:03;99312.53;;;20.87
15709;BMP180;7954;51.914;8.420;2023-08-06T02:12:33;99302.91;;;20.77
15709;BMP180;7954;51.914;8.420;2023-08-06T02:15:01;99305.31;;;20.76
15709;BMP180;7954;51.914;8.420;2023-08-06T02:17:29;99292.88;;;20.72
15709;BMP180;7954;51.914;8.420;2023-08-06T02:19:56;99299.31;;;20.68
15709;BMP180;7954;51.914;8.420;2023-08-06T02:22:24;99295.34;;;20.64
15709;BMP180;7954;51.914;8.420;2023-08-06T02:24:52;99310.91;;;20.65
15709;BMP180;7954;51.914;8.420;2023-08-06T02:27:20;99298.81;;;20.64
15709;BMP180;7954;51.914;8.420;2023-08-06T02:29:50;99310.31;;;20.67
15709;BMP180;7954;51.914;8.420;2023-08-06T02:32:18;99304.97;;;20.73
15709;BMP180;7954;51.914;8.420;2023-08-06T02:34:46;99297.78;;;20.77
15709;BMP180;7954;51.914;8.420;2023-08-06T02:37:14;99302.50;;;20.81
15709;BMP180;7954;51.914;8.420;2023-08-06T02:39:42;99296.78;;;20.84
15709;BMP180;7954;51.914;8.420;2023-08-06T02:42:10;99286.50;;;20.84
15709;BMP180;7954;51.914;8.420;2023-08-06T02:44:38;99289.06;;;20.84
15709;BMP180;7954;51.914;8.420;2023-08-06T02:47:08;99278.00;;;20.76
15709;BMP180;7954;51.914;8.420;2023-08-06T02:49:36;99268.13;;;20.72
15709;BMP180;7954;51.914;8.420;2023-08-06T02:52:05;99267.28;;;20.65
15709;BMP180;7954;51.914;8.420;2023-08-06T02:54:33;99268.44;;;20.60
15709;BMP180;7954;51.914;8.420;2023-08-06T02:57:01;99261.75;;;20.54
15709;BMP180;7954;51.914;8.420;2023-08-06T02:59:29;99260.94;;;20.46
15709;BMP180;7954;51.914;8.420;2023-08-06T03:01:56;99269.03;;;20.42
15709;BMP180;7954;51.914;8.420;2023-08-06T03:04:26;99274.56;;;20.38
15709;BMP180;7954;51.914;8.420;2023-08-06T03:06:54;99267.63;;;20.37
15709;BMP180;7954;51.914;8.420;2023-08-06T03:09:22;99263.66;;;20.32
15709;BMP180;7954;51.914;8.420;2023-08-06T03:11:50;99257.44;;;20.30
15709;BMP180;7954;51.914;8.420;2023-08-06T03:14:18;99260.75;;;20.29
15709;BMP180;7954;51.914;8.420;2023-08-06T03:16:46;99258.59;;;20.25
15709;BMP180;7954;51.914;8.420;2023-08-06T03:19:14;99248.75;;;20.21
15709;BMP180;7954;51.914;8.420;2023-08-06T03:21:43;99242.22;;;20.16
15709;BMP180;7954;51.914;8.420;2023-08-06T03:24:13;99244.25;;;20.12
15709;BMP180;7954;51.914;8.420;2023-08-06T03:26:41;99244.09;;;20.10
15709;BMP180;7954;51.914;8.420;2023-08-06T03:29:09;99249.66;;;20.06
15709;BMP180;7954;51.914;8.420;2023-08-06T03:31:37;99245.09;;;20.04
15709;BMP180;7954;51.914;8.420;2023-08-06T03:34:05;99252.59;;;20.02
15709;BMP180;7954;51.914;8.420;2023-08-06T03:36:33;99248.22;;;20.02
15709;BMP180;7954;51.914;8.420;2023-08-06T03:39:02;99244.56;;;20.00
15709;BMP180;7954;51.914;8.420;2023-08-06T03:41:30;99237.63;;;19.99
15709;BMP180;7954;51.914;8.420;2023-08-06T03:43:58;99234.75;;;19.96
15709;BMP180;7954;51.914;8.420;2023-08-06T03:46:28;99240.59;;;19.95
15709;BMP180;7954;51.914;8.420;2023-08-06T03:48:58;99234.38;;;19.93
15709;BMP180;7954;51.914;8.420;2023-08-06T03:51:26;99236.94;;;19.93
15709;BMP180;7954;51.914;8.420;2023-08-06T03:53:55;99231.13;;;19.87
15709;BMP180;7954;51.914;8.420;2023-08-06T03:56:25;99226.00;;;19.87
15709;BMP180;7954;51.914;8.420;2023-08-06T03:58:53;99229.16;;;19.84
15709;BMP180;7954;51.914;8.420;2023-08-06T04:01:21;99222.03;;;19.82
15709;BMP180;7954;51.914;8.420;2023-08-06T04:03:48;99218.69;;;19.83
15709;BMP180;7954;51.914;8.420;2023-08-06T04:06:17;99222.19;;;19.83
15709;BMP180;7954;51.914;8.420;2023-08-06T04:08:45;99215.75;;;19.87
15709;BMP180;7954;51.914;8.420;2023-08-06T04:11:13;99217.91;;;19.91
15709;BMP180;7954;51.914;8.420;2023-08-06T04:13:44;99224.66;;;19.97
15709;BMP180;7954;51.914;8.420;2023-08-06T04:16:12;99220.03;;;20.02
15709;BMP180;7954;51.914;8.420;2023-08-06T04:18:41;99224.19;;;20.08
15709;BMP180;7954;51.914;8.420;2023-08-06T04:21:09;99217.97;;;20.06
15709;BMP180;7954;51.914;8.420;2023-08-06T04:23:38;99219.28;;;20.02
15709;BMP180;7954;51.914;8.420;2023-08-06T04:26:06;99217.78;;;20.04
15709;BMP180;7954;51.914;8.420;2023-08-06T04:28:34;99219.94;;;20.08
15709;BMP180;7954;51.914;8.420;2023-08-06T04:31:04;99217.53;;;20.10
15709;BMP180;7954;51.914;8.420;2023-08-06T04:33:33;99214.25;;;20.11
15709;BMP180;7954;51.914;8.420;2023-08-06T04:36:01;99224.66;;;20.12
15709;BMP180;7954;51.914;8.420;2023-08-06T04:38:29;99223.91;;;20.13
15709;BMP180;7954;51.914;8.420;2023-08-06T04:40:57;99218.78;;;20.13
15709;BMP180;7954;51.914;8.420;2023-08-06T04:43:25;99218.06;;;20.14
15709;BMP180;7954;51.914;8.420;2023-08-06T04:45:54;99223.34;;;20.16
15709;BMP180;7954;51.914;8.420;2023-08-06T04:48:24;99225.75;;;20.14
15709;BMP180;7954;51.914;8.420;2023-08-06T04:50:52;99222.75;;;20.18
15709;BMP180;7954;51.914;8.420;2023-08-06T04:53:21;99242.84;;;20.22
15709;BMP180;7954;51.914;8.420;2023-08-06T04:55:49;99224.28;;;20.16
15709;BMP180;7954;51.914;8.420;2023-08-06T04:58:16;99217.47;;;20.17
15709;BMP180;7954;51.914;8.420;2023-08-06T05:00:44;99227.56;;;20.15
15709;BMP180;7954;51.914;8.420;2023-08-06T05:03:13;99232.13;;;20.18
15709;BMP180;7954;51.914;8.420;2023-08-06T05:05:42;99231.88;;;20.23
15709;BMP180;7954;51.914;8.420;2023-08-06T05:08:14;99227.41;;;20.29
15709;BMP180;7954;51.914;8.420;2023-08-06T05:10:43;99225.34;;;20.34
15709;BMP180;7954;51.914;8.420;2023-08-06T05:13:12;99228.41;;;20.38
15709;BMP180;7954;51.914;8.420;2023-08-06T05:15:41;99235.28;;;20.46
15709;BMP180;7954;51.914;8.420;2023-08-06T05:18:09;99227.47;;;20.53
15709;BMP180;7954;51.914;8.420;2023-08-06T05:20:39;99235.84;;;20.59
15709;BMP180;7954;51.914;8.420;2023-08-06T05:23:08;99228.00;;;20.58
15709;BMP180;7954;51.914;8.420;2023-08-06T05:25:37;99240.97;;;20.59
15709;BMP180;7954;51.914;8.420;2023-08-06T05:28:05;99247.50;;;20.64
15709;BMP180;7954;51.914;8.420;2023-08-06T05:30:34;99237.25;;;20.64
15709;BMP180;7954;51.914;8.420;2023-08-06T05:33:06;99233.34;;;20.67
15709;BMP180;7954;51.914;8.420;2023-08-06T05:35:34;99242.16;;;20.69
15709;BMP180;7954;51.914;8.420;2023-08-06T05:38:02;99236.03;;;20.76
15709;BMP180;7954;51.914;8.420;2023-08-06T05:40:34;99240.97;;;20.90
15709;BMP180;7954;51.914;8.420;2023-08-06T05:43:02;99227.78;;;21.02
15709;BMP180;7954;51.914;8.420;2023-08-06T05:45:30;99238.78;;;21.17
15709;BMP180;7954;51.914;8.420;2023-08-06T05:47:58;99233.34;;;21.22
15709;BMP180;7954;51.914;8.420;2023-08-06T05:50:27;99237.97;;;21.33
15709;BMP180;7954;51.914;8.420;2023-08-06T05:52:54;99232.88;;;21.41
15709;BMP180;7954;51.914;8.420;2023-08-06T05:55:26;99227.16;;;21.44
15709;BMP180;7954;51.914;8.420;2023-08-06T05:57:56;99228.69;;;21.50
15709;BMP180;7954;51.914;8.420;2023-08-06T06:00:25;99224.75;;;21.45
15709;BMP180;7954;51.914;8.420;2023-08-06T06:02:53;99231.13;;;21.49
15709;BMP180;7954;51.914;8.420;2023-08-06T06:05:22;99222.03;;;21.44
15709;BMP180;7954;51.914;8.420;2023-08-06T06:07:50;99228.94;;;21.45
15709;BMP180;7954;51.914;8.420;2023-08-06T06:10:18;99220.88;;;21.57
15709;BMP180;7954;51.914;8.420;2023-08-06T06:12:46;99231.97;;;21.65
15709;BMP180;7954;51.914;8.420;2023-08-06T06:15:15;99225.03;;;21.72
15709;BMP180;7954;51.914;8.420;2023-08-06T06:17:43;99227.81;;;21.82
15709;BMP180;7954;51.914;8.420;2023-08-06T06:20:11;99218.91;;;21.87
15709;BMP180;7954;51.914;8.420;2023-08-06T06:22:39;99225.16;;;21.98
15709;BMP180;7954;51.914;8.420;2023-08-06T06:25:08;99218.22;;;22.05
15709;BMP180;7954;51.914;8.420;2023-08-06T06:27:36;99224.44;;;22.15
15709;BMP180;7954;51.914;8.420;2023-08-06T06:30:05;99227.94;;;22.24
15709;BMP180;7954;51.914;8.420;2023-08-06T06:32:35;99228.31;;;22.36
15709;BMP180;7954;51.914;8.420;2023-08-06T06:35:04;99222.41;;;22.45
15709;BMP180;7954;51.914;8.420;2023-08-06T06:37:33;99227.25;;;22.59
15709;BMP180;7954;51.914;8.420;2023-08-06T06:40:01;99217.44;;;22.80
15709;BMP180;7954;51.914;8.420;2023-08-06T06:42:30;99224.84;;;22.94
15709;BMP180;7954;51.914;8.420;2023-08-06T06:44:58;99208.22;;;23.16
15709;BMP180;7954;51.914;8.420;2023-08-06T06:47:26;99206.53;;;23.25
15709;BMP180;7954;51.914;8.420;2023-08-06T06:49:55;99217.56;;;23.41
15709;BMP180;7954;51.914;8.420;2023-08-06T06:52:23;99209.75;;;23.58
15709;BMP180;7954;51.914;8.420;2023-08-06T06:54:51;99205.34;;;23.74
15709;BMP180;7954;51.914;8.420;2023-08-06T06:57:19;99207.13;;;23.83
15709;BMP180;7954;51.914;8.420;2023-08-06T06:59:47;99204.19;;;23.89
15709;BMP180;7954;51.914;8.420;2023-08-06T07:02:14;99205.28;;;23.91
15709;BMP180;7954;51.914;8.420;2023-08-06T07:04:43;99202.81;;;23.92
15709;BMP180;7954;51.914;8.420;2023-08-06T07:07:12;99196.75;;;23.92
15709;BMP180;7954;51.914;8.420;2023-08-06T07:09:40;99191.97;;;24.04
15709;BMP180;7954;51.914;8.420;2023-08-06T07:12:08;99194.75;;;24.24
15709;BMP180;7954;51.914;8.420;2023-08-06T07:14:36;99198.78;;;24.31
15709;BMP180;7954;51.914;8.420;2023-08-06T07:17:04;99197.47;;;24.26
15709;BMP180;7954;51.914;8.420;2023-08-06T07:19:32;99197.66;;;24.19
15709;BMP180;7954;51.914;8.420;2023-08-06T07:22:00;99198.13;;;24.15
15709;BMP180;7954;51.914;8.420;2023-08-06T07:24:30;99198.22;;;24.25
15709;BMP180;7954;51.914;8.420;2023-08-06T07:26:58;99195.09;;;24.37
15709;BMP180;7954;51.914;8.420;2023-08-06T07:29:26;99192.16;;;24.51
15709;BMP180;7954;51.914;8.420;2023-08-06T07:31:54;99193.28;;;24.63
15709;BMP180;7954;51.914;8.420;2023-08-06T07:34:25;99185.34;;;24.70
15709;BMP180;7954;51.914;8.420;2023-08-06T07:36:52;99176.78;;;24.71
15709;BMP180;7954;51.914;8.420;2023-08-06T07:39:21;99177.34;;;24.77
15709;BMP180;7954;51.914;8.420;2023-08-06T07:41:50;99187.19;;;24.81
15709;BMP180;7954;51.914;8.420;2023-08-06T07:44:19;99190.81;;;24.83
15709;BMP180;7954;51.914;8.420;2023-08-06T07:46:47;99196.63;;;24.99
15709;BMP180;7954;51.914;8.420;2023-08-06T07:49:15;99190.78;;;25.10
15709;BMP180;7954;51.914;8.420;2023-08-06T07:51:43;99185.00;;;25.04
15709;BMP180;7954;51.914;8.420;2023-08-06T07:54:11;99188.94;;;24.90
15709;BMP180;7954;51.914;8.420;2023-08-06T07:56:40;99182.22;;;25.11
15709;BMP180;7954;51.914;8.420;2023-08-06T07:59:09;99188.00;;;25.27
15709;BMP180;7954;51.914;8.420;2023-08-06T08:01:38;99191.19;;;25.52
15709;BMP180;7954;51.914;8.420;2023-08-06T08:04:06;99182.94;;;25.94
15709;BMP180;7954;51.914;8.420;2023-08-06T08:06:34;99174.19;;;26.22
15709;BMP180;7954;51.914;8.420;2023-08-06T08:09:02;99175.50;;;26.37
15709;BMP180;7954;51.914;8.420;2023-08-06T08:11:31;99169.13;;;26.63
15709;BMP180;7954;51.914;8.420;2023-08-06T08:13:59;99166.13;;;26.69
15709;BMP180;7954;51.914;8.420;2023-08-06T08:16:28;99173.13;;;26.70
15709;BMP180;7954;51.914;8.420;2023-08-06T08:18:56;99165.56;;;26.83
15709;BMP180;7954;51.914;8.420;2023-08-06T08:21:25;99166.00;;;26.77
15709;BMP180;7954;51.914;8.420;2023-08-06T08:23:52;99169.22;;;26.85
15709;BMP180;7954;51.914;8.420;2023-08-06T08:26:20;99168.56;;;26.87
15709;BMP180;7954;51.914;8.420;2023-08-06T08:28:50;99164.66;;;26.92
15709;BMP180;7954;51.914;8.420;2023-08-06T08:31:18;99167.91;;;26.90
15709;BMP180;7954;51.914;8.420;2023-08-06T08:33:47;99159.59;;;26.94
15709;BMP180;7954;51.914;8.420;2023-08-06T08:36:19;99166.47;;;27.03
15709;BMP180;7954;51.914;8.420;2023-08-06T08:38:47;99165.31;;;26.90
15709;BMP180;7954;51.914;8.420;2023-08-06T08:41:16;99160.13;;;26.90
15709;BMP180;7954;51.914;8.420;2023-08-06T08:43:44;99158.44;;;26.90
15709;BMP180;7954;51.914;8.420;2023-08-06T08:46:13;99160.63;;;26.96
15709;BMP180;7954;51.914;8.420;2023-08-06T08:48:42;99160.53;;;27.04
15709;BMP180;7954;51.914;8.420;2023-08-06T08:51:13;99166.13;;;27.20
15709;BMP180;7954;51.914;8.420;2023-08-06T08:53:44;99161.72;;;27.29
15709;BMP180;7954;51.914;8.420;2023-08-06T08:56:12;99161.06;;;27.31
15709;BMP180;7954;51.914;8.420;2023-08-06T08:58:40;99159.16;;;27.50
15709;BMP180;7954;51.914;8.420;2023-08-06T09:01:08;99161.69;;;27.39
15709;BMP180;7954;51.914;8.420;2023-08-06T09:03:37;99159.41;;;27.22
15709;BMP180;7954;51.914;8.420;2023-08-06T09:06:06;99158.94;;;27.06
15709;BMP180;7954;51.914;8.420;2023-08-06T09:08:39;99160.63;;;26.96
15709;BMP180;7954;51.914;8.420;2023-08-06T09:11:09;99160.25;;;26.91
15709;BMP180;7954;51.914;8.420;2023-08-06T09:13:37;99164.91;;;26.85
15709;BMP180;7954;51.914;8.420;2023-08-06T09:16:05;99170.09;;;26.85
15709;BMP180;7954;51.914;8.420;2023-08-06T09:18:33;99164.16;;;26.86
15709;BMP180;7954;51.914;8.420;2023-08-06T09:21:01;99168.28;;;26.94
15709;BMP180;7954;51.914;8.420;2023-08-06T09:23:29;99163.13;;;26.94
15709;BMP180;7954;51.914;8.420;2023-08-06T09:26:02;99167.50;;;26.85
15709;BMP180;7954;51.914;8.420;2023-08-06T09:28:36;99159.00;;;26.76
15709;BMP180;7954;51.914;8.420;2023-08-06T09:31:05;99158.09;;;26.76
15709;BMP180;7954;51.914;8.420;2023-08-06T09:33:33;99161.31;;;26.83
15709;BMP180;7954;51.914;8.420;2023-08-06T09:36:07;99163.50;;;26.99
15709;BMP180;7954;51.914;8.420;2023-08-06T09:38:40;99163.69;;;27.22
15709;BMP180;7954;51.914;8.420;2023-08-06T09:41:10;99158.72;;;27.56
15709;BMP180;7954;51.914;8.420;2023-08-06T09:43:41;99159.63;;;27.66
15709;BMP180;7954;51.914;8.420;2023-08-06T09:46:13;99150.84;;;27.76
15709;BMP180;7954;51.914;8.420;2023-08-06T09:48:47;99144.03;;;27.88
15709;BMP180;7954;51.914;8.420;2023-08-06T09:51:16;99146.56;;;27.97
15709;BMP180;7954;51.914;8.420;2023-08-06T09:53:45;99148.25;;;28.18
15709;BMP180;7954;51.914;8.420;2023-08-06T09:56:17;99139.25;;;28.36
15709;BMP180;7954;51.914;8.420;2023-08-06T09:58:47;99125.28;;;28.46
15709;BMP180;7954;51.914;8.420;2023-08-06T10:01:17;99128.31;;;28.40
15709;BMP180;7954;51.914;8.420;2023-08-06T10:03:47;99137.09;;;28.31
15709;BMP180;7954;51.914;8.420;2023-08-06T10:06:17;99137.94;;;28.53
15709;BMP180;7954;51.914;8.420;2023-08-06T10:08:45;99134.94;;;28.81
15709;BMP180;7954;51.914;8.420;2023-08-06T10:11:16;99130.97;;;29.20
15709;BMP180;7954;51.914;8.420;2023-08-06T10:13:46;99131.47;;;29.62
15709;BMP180;7954;51.914;8.420;2023-08-06T10:16:16;99124.34;;;29.95
15709;BMP180;7954;51.914;8.420;2023-08-06T10:18:45;99122.03;;;30.11
15709;BMP180;7954;51.914;8.420;2023-08-06T10:21:14;99118.22;;;30.19
15709;BMP180;7954;51.914;8.420;2023-08-06T10:23:43;99121.78;;;30.32
15709;BMP180;7954;51.914;8.420;2023-08-06T10:26:11;99122.00;;;30.35
15709;BMP180;7954;51.914;8.420;2023-08-06T10:28:44;99111.16;;;30.29
15709;BMP180;7954;51.914;8.420;2023-08-06T10:31:11;99121.44;;;30.15
15709;BMP180;7954;51.914;8.420;2023-08-06T10:33:41;99110.91;;;29.89
15709;BMP180;7954;51.914;8.420;2023-08-06T10:36:10;99116.63;;;29.72
15709;BMP180;7954;51.914;8.420;2023-08-06T10:38:45;99107.38;;;29.53
15709;BMP180;7954;51.914;8.420;2023-08-06T10:41:23;99108.59;;;29.33
15709;BMP180;7954;51.914;8.420;2023-08-06T10:44:05;99116.13;;;29.30
15709;BMP180;7954;51.914;8.420;2023-08-06T10:46:34;99112.28;;;29.25
15709;BMP180;7954;51.914;8.420;2023-08-06T10:49:03;99114.44;;;29.20
15709;BMP180;7954;51.914;8.420;2023-08-06T10:51:31;99112.09;;;29.23
15709;BMP180;7954;51.914;8.420;2023-08-06T10:53:58;99112.88;;;29.22
15709;BMP180;7954;51.914;8.420;2023-08-06T10:56:28;99100.22;;;29.26
15709;BMP180;7954;51.914;8.420;2023-08-06T10:58:57;99110.38;;;29.34
15709;BMP180;7954;51.914;8.420;2023-08-06T11:01:28;99108.81;;;29.36
15709;BMP180;7954;51.914;8.420;2023-08-06T11:04:01;99101.88;;;29.37
15709;BMP180;7954;51.914;8.420;2023-08-06T11:06:29;99107.22;;;29.38
15709;BMP180;7954;51.914;8.420;2023-08-06T11:08:58;99106.50;;;29.29
15709;BMP180;7954;51.914;8.420;2023-08-06T11:11:26;99096.16;;;29.07
15709;BMP180;7954;51.914;8.420;2023-08-06T11:13:54;99094.94;;;28.79
15709;BMP180;7954;51.914;8.420;2023-08-06T11:16:23;99098.53;;;28.69
15709;BMP180;7954;51.914;8.420;2023-08-06T11:18:52;99098.28;;;28.55
15709;BMP180;7954;51.914;8.420;2023-08-06T11:21:22;99095.25;;;28.49
15709;BMP180;7954;51.914;8.420;2023-08-06T11:23:51;99097.28;;;28.42
15709;BMP180;7954;51.914;8.420;2023-08-06T11:26:19;99090.00;;;28.26
15709;BMP180;7954;51.914;8.420;2023-08-06T11:28:47;99099.97;;;28.10
15709;BMP180;7954;51.914;8.420;2023-08-06T11:31:19;99085.81;;;27.95
15709;BMP180;7954;51.914;8.420;2023-08-06T11:33:49;99097.13;;;27.75
15709;BMP180;7954;51.914;8.420;2023-08-06T11:36:28;99088.28;;;27.94
15709;BMP180;7954;51.914;8.420;2023-08-06T11:38:56;99090.41;;;28.09
15709;BMP180;7954;51.914;8.420;2023-08-06T11:41:25;99094.72;;;28.20
15709;BMP180;7954;51.914;8.420;2023-08-06T11:43:55;99101.22;;;28.15
15709;BMP180;7954;51.914;8.420;2023-08-06T11:46:23;99088.47;;;28.07
15709;BMP180;7954;51.914;8.420;2023-08-06T11:48:54;99089.91;;;28.03
15709;BMP180;7954;51.914;8.420;2023-08-06T11:51:22;99093.84;;;27.98
15709;BMP180;7954;51.914;8.420;2023-08-06T11:53:54;99091.25;;;27.98
15709;BMP180;7954;51.914;8.420;2023-08-06T11:56:22;99092.41;;;28.02
15709;BMP180;7954;51.914;8.420;2023-08-06T11:58:51;99080.00;;;28.09
15709;BMP180;7954;51.914;8.420;2023-08-06T12:01:20;99084.34;;;28.20
15709;BMP180;7954;51.914;8.420;2023-08-06T12:03:48;99077.94;;;28.27
15709;BMP180;7954;51.914;8.420;2023-08-06T12:06:17;99075.25;;;28.37
15709;BMP180;7954;51.914;8.420;2023-08-06T12:08:45;99070.38;;;28.41
15709;BMP180;7954;51.914;8.420;2023-08-06T12:11:14;99070.47;;;28.43
15709;BMP180;7954;51.914;8.420;2023-08-06T12:13:42;99073.75;;;28.40
15709;BMP180;7954;51.914;8.420;2023-08-06T12:16:10;99072.16;;;28.31
15709;BMP180;7954;51.914;8.420;2023-08-06T12:18:40;99070.56;;;28.33
15709;BMP180;7954;51.914;8.420;2023-08-06T12:21:08;99079.19;;;28.32
15709;BMP180;7954;51.914;8.420;2023-08-06T12:23:37;99082.47;;;28.41
15709;BMP180;7954;51.914;8.420;2023-08-06T12:26:05;99078.50;;;28.46
15709;BMP180;7954;51.914;8.420;2023-08-06T12:28:33;99077.84;;;28.59
15709;BMP180;7954;51.914;8.420;2023-08-06T12:31:02;99075.81;;;28.67
15709;BMP180;7954;51.914;8.420;2023-08-06T12:33:29;99074.09;;;28.67
15709;BMP180;7954;51.914;8.420;2023-08-06T12:35:57;99068.59;;;28.86
15709;BMP180;7954;51.914;8.420;2023-08-06T12:38:26;99069.28;;;28.83
15709;BMP180;7954;51.914;8.420;2023-08-06T12:40:55;99067.47;;;28.82
15709;BMP180;7954;51.914;8.420;2023-08-06T12:43:24;99063.38;;;28.86
15709;BMP180;7954;51.914;8.420;2023-08-06T12:45:52;99066.34;;;28.90
15709;BMP180;7954;51.914;8.420;2023-08-06T12:48:20;99059.88;;;28.97
15709;BMP180;7954;51.914;8.420;2023-08-06T12:50:48;99061.69;;;28.98
15709;BMP180;7954;51.914;8.420;2023-08-06T12:53:17;99069.28;;;28.83
15709;BMP180;7954;51.914;8.420;2023-08-06T12:55:47;99067.44;;;28.71
15709;BMP180;7954;51.914;8.420;2023-08-06T12:58:16;99068.78;;;28.43
15709;BMP180;7954;51.914;8.420;2023-08-06T13:00:44;99085.06;;;28.29
15709;BMP180;7954;51.914;8.420;2023-08-06T13:03:12;99101.56;;;27.87
15709;BMP180;7954;51.914;8.420;2023-08-06T13:05:41;99114.44;;;27.43
15709;BMP180;7954;51.914;8.420;2023-08-06T13:08:09;99119.16;;;26.96
15709;BMP180;7954;51.914;8.420;2023-08-06T13:10:37;99129.00;;;26.59
15709;BMP180;7954;51.914;8.420;2023-08-06T13:13:06;99132.88;;;26.34
15709;BMP180;7954;51.914;8.420;2023-08-06T13:15:35;99146.34;;;26.00
15709;BMP180;7954;51.914;8.420;2023-08-06T13:18:03;99145.97;;;25.67
15709;BMP180;7954;51.914;8.420;2023-08-06T13:20:31;99147.38;;;25.64
15709;BMP180;7954;51.914;8.420;2023-08-06T13:22:59;99143.63;;;25.50
15709;BMP180;7954;51.914;8.420;2023-08-06T13:25:27;99145.28;;;25.50
15709;BMP180;7954;51.914;8.420;2023-08-06T13:27:55;99145.44;;;25.61
15709;BMP180;7954;51.914;8.420;2023-08-06T13:30:23;99149.81;;;25.81
15709;BMP180;7954;51.914;8.420;2023-08-06T13:32:52;99135.47;;;26.04
15709;BMP180;7954;51.914;8.420;2023-08-06T13:35:22;99147.00;;;26.07
15709;BMP180;7954;51.914;8.420;2023-08-06T13:37:49;99143.47;;;25.87
15709;BMP180;7954;51.914;8.420;2023-08-06T13:40:17;99153.13;;;25.31
15709;BMP180;7954;51.914;8.420;2023-08-06T13:42:45;99163.31;;;24.83
15709;BMP180;7954;51.914;8.420;2023-08-06T13:45:13;99163.63;;;24.68
15709;BMP180;7954;51.914;8.420;2023-08-06T13:47:41;99162.09;;;24.70
15709;BMP180;7954;51.914;8.420;2023-08-06T13:50:11;99165.69;;;24.72
15709;BMP180;7954;51.914;8.420;2023-08-06T13:52:40;99157.75;;;24.79
15709;BMP180;7954;51.914;8.420;2023-08-06T13:55:09;99154.94;;;24.86
15709;BMP180;7954;51.914;8.420;2023-08-06T13:57:37;99160.09;;;24.86
15709;BMP180;7954;51.914;8.420;2023-08-06T14:00:06;99149.63;;;24.84
15709;BMP180;7954;51.914;8.420;2023-08-06T14:02:34;99148.44;;;24.81
15709;BMP180;7954;51.914;8.420;2023-08-06T14:05:02;99151.75;;;24.70
15709;BMP180;7954;51.914;8.420;2023-08-06T14:07:32;99151.06;;;24.63
15709;BMP180;7954;51.914;8.420;2023-08-06T14:10:00;99172.41;;;24.52
15709;BMP180;7954;51.914;8.420;2023-08-06T14:12:28;99183.44;;;24.59
15709;BMP180;7954;51.914;8.420;2023-08-06T14:14:56;99189.25;;;24.75
15709;BMP180;7954;51.914;8.420;2023-08-06T14:17:25;99180.63;;;24.84
15709;BMP180;7954;51.914;8.420;2023-08-06T14:19:53;99193.84;;;24.87
15709;BMP180;7954;51.914;8.420;2023-08-06T14:22:21;99185.47;;;24.90
15709;BMP180;7954;51.914;8.420;2023-08-06T14:24:51;99187.31;;;25.01
15709;BMP180;7954;51.914;8.420;2023-08-06T14:27:19;99195.34;;;25.04
15709;BMP180;7954;51.914;8.420;2023-08-06T14:29:47;99207.50;;;25.05